createdAt,value
2023-04-22T00:00:43.734Z,98369.69
2023-04-22T00:03:18.377Z,98372.99
2023-04-22T00:05:46.143Z,98371.01
2023-04-22T00:08:13.996Z,98370.77
2023-04-22T00:10:41.627Z,98371.79
2023-04-22T00:13:09.381Z,98373.18
2023-04-22T00:15:37.064Z,98373.73
2023-04-22T00:18:04.740Z,98375.29
2023-04-22T00:20:32.430Z,98371.45
2023-04-22T00:23:00.048Z,98375.68
2023-04-22T00:25:27.676Z,98370.48
2023-04-22T00:27:55.256Z,98373.78
2023-04-22T00:30:22.858Z,98367.80
2023-04-22T00:32:50.665Z,98365.54
2023-04-22T00:35:18.297Z,98362.77
2023-04-22T00:37:45.976Z,98365.89
2023-04-22T00:40:13.556Z,98360.73
2023-04-22T00:42:43.606Z,98361.99
2023-04-22T00:45:15.078Z,98360.86
2023-04-22T00:47:44.454Z,98361.27
2023-04-22T00:50:12.415Z,98359.81
2023-04-22T00:52:40.079Z,98361.90
2023-04-22T00:55:08.579Z,98362.32
2023-04-22T00:57:37.022Z,98362.06
2023-04-22T01:00:06.801Z,98365.18
2023-04-22T01:02:34.609Z,98367.95
2023-04-22T01:05:02.601Z,98366.80
2023-04-22T01:07:30.212Z,98368.37
2023-04-22T01:09:57.936Z,98368.58
2023-04-22T01:12:25.500Z,98369.11
2023-04-22T01:14:53.171Z,98365.58
2023-04-22T01:17:21.269Z,98366.27
2023-04-22T01:19:48.962Z,98366.46
2023-04-22T01:22:17.086Z,98366.95
2023-04-22T01:24:45.246Z,98363.44
2023-04-22T01:27:12.920Z,98364.80
2023-04-22T01:29:40.861Z,98361.80
2023-04-22T01:32:08.789Z,98364.56
2023-04-22T01:34:36.457Z,98361.59
2023-04-22T01:37:04.120Z,98360.13
2023-04-22T01:39:31.890Z,98357.48
2023-04-22T01:41:59.669Z,98358.55
2023-04-22T01:44:27.321Z,98360.89
2023-04-22T01:46:54.906Z,98362.08
2023-04-22T01:49:22.496Z,98363.80
2023-04-22T01:51:50.044Z,98363.31
2023-04-22T01:54:17.657Z,98365.88
2023-04-22T01:56:54.802Z,98368.63
2023-04-22T01:59:22.412Z,98367.88
2023-04-22T02:01:50.474Z,98368.58
2023-04-22T02:04:18.192Z,98372.36
2023-04-22T02:06:45.745Z,98369.05
2023-04-22T02:09:13.346Z,98367.08
2023-04-22T02:11:40.926Z,98368.80
2023-04-22T02:14:08.541Z,98364.64
2023-04-22T02:16:36.134Z,98366.20
2023-04-22T02:19:03.779Z,98364.88
2023-04-22T02:21:31.585Z,98364.41
2023-04-22T02:23:59.189Z,98364.94
2023-04-22T02:26:26.745Z,98363.41
2023-04-22T02:28:54.332Z,98363.44
2023-04-22T02:31:21.978Z,98362.45
2023-04-22T02:33:49.573Z,98365.85
2023-04-22T02:36:17.171Z,98365.17
2023-04-22T02:38:44.767Z,98364.02
2023-04-22T02:41:12.341Z,98363.41
2023-04-22T02:43:39.860Z,98364.13
2023-04-22T02:46:07.517Z,98366.70
2023-04-22T02:48:35.107Z,98365.05
2023-04-22T02:51:02.651Z,98362.92
2023-04-22T02:53:30.190Z,98363.80
2023-04-22T02:55:57.786Z,98365.54
2023-04-22T02:58:25.339Z,98363.88
2023-04-22T03:00:53.738Z,98366.45
2023-04-22T03:03:21.604Z,98362.60
2023-04-22T03:05:49.332Z,98361.26
2023-04-22T03:08:16.942Z,98361.13
2023-04-22T03:10:44.648Z,98363.36
2023-04-22T03:13:15.240Z,98361.70
2023-04-22T03:15:42.789Z,98364.59
2023-04-22T03:18:10.504Z,98363.11
2023-04-22T03:20:38.708Z,98360.96
2023-04-22T03:23:06.284Z,98361.64
2023-04-22T03:25:33.832Z,98360.52
2023-04-22T03:28:01.463Z,98361.89
2023-04-22T03:30:29.022Z,98362.27
2023-04-22T03:32:56.871Z,98362.79
2023-04-22T03:35:24.731Z,98359.59
2023-04-22T03:37:52.370Z,98359.58
2023-04-22T03:40:20.114Z,98366.98
2023-04-22T03:42:47.759Z,98364.80
2023-04-22T03:45:15.828Z,98368.02
2023-04-22T03:47:43.483Z,98365.69
2023-04-22T03:50:11.403Z,98368.38
2023-04-22T03:52:39.019Z,98369.41
2023-04-22T03:55:06.857Z,98371.91
2023-04-22T03:57:34.457Z,98372.05
2023-04-22T04:00:02.137Z,98370.88
2023-04-22T04:02:29.875Z,98373.72
2023-04-22T04:04:57.877Z,98370.48
2023-04-22T04:07:25.695Z,98376.38
2023-04-22T04:09:53.314Z,98374.00
2023-04-22T04:12:20.863Z,98376.83
2023-04-22T04:14:48.431Z,98378.99
2023-04-22T04:17:16.004Z,98382.50
2023-04-22T04:19:43.706Z,98382.46
2023-04-22T04:22:11.489Z,98382.42
2023-04-22T04:24:39.068Z,98380.36
2023-04-22T04:27:06.643Z,98380.17
2023-04-22T04:29:34.723Z,98381.30
2023-04-22T04:32:02.331Z,98379.60
2023-04-22T04:34:30.155Z,98380.39
2023-04-22T04:36:58.099Z,98381.85
2023-04-22T04:39:25.662Z,98383.30
2023-04-22T04:41:53.176Z,98389.64
2023-04-22T04:44:21.520Z,98387.38
2023-04-22T04:46:49.173Z,98392.52
2023-04-22T04:49:16.831Z,98392.08
2023-04-22T04:51:44.657Z,98392.45
2023-04-22T04:54:12.242Z,98391.81
2023-04-22T04:56:40.088Z,98392.00
2023-04-22T04:59:07.718Z,98393.53
2023-04-22T05:01:35.689Z,98394.89
2023-04-22T05:04:03.618Z,98395.03
2023-04-22T05:06:31.391Z,98393.12
2023-04-22T05:08:59.455Z,98388.88
2023-04-22T05:11:27.071Z,98389.80
2023-04-22T05:13:54.651Z,98386.05
2023-04-22T05:16:22.521Z,98386.98
2023-04-22T05:18:50.132Z,98389.23
2023-04-22T05:21:17.679Z,98391.00
2023-04-22T05:23:45.254Z,98389.38
2023-04-22T05:26:13.154Z,98390.77
2023-04-22T05:28:40.760Z,98391.97
2023-04-22T05:31:08.456Z,98390.46
2023-04-22T05:33:36.009Z,98390.14
2023-04-22T05:36:03.798Z,98390.30
2023-04-22T05:38:31.460Z,98388.23
2023-04-22T05:40:59.085Z,98395.29
2023-04-22T05:43:26.704Z,98392.68
2023-04-22T05:45:54.386Z,98391.57
2023-04-22T05:48:21.991Z,98392.43
2023-04-22T05:50:49.527Z,98391.92
2023-04-22T05:53:17.049Z,98395.70
2023-04-22T05:55:44.636Z,98399.55
2023-04-22T05:58:12.174Z,98401.23
2023-04-22T06:00:39.720Z,98395.94
2023-04-22T06:03:07.600Z,98393.64
2023-04-22T06:05:35.457Z,98396.20
2023-04-22T06:08:03.073Z,98396.23
2023-04-22T06:10:30.656Z,98400.66
2023-04-22T06:12:58.226Z,98402.10
2023-04-22T06:15:26.177Z,98404.04
2023-04-22T06:17:53.860Z,98403.25
2023-04-22T06:20:21.513Z,98407.55
2023-04-22T06:22:49.092Z,98406.11
2023-04-22T06:25:16.807Z,98405.11
2023-04-22T06:27:44.500Z,98402.27
2023-04-22T06:30:12.298Z,98402.95
2023-04-22T06:32:39.868Z,98403.12
2023-04-22T06:35:08.073Z,98404.73
2023-04-22T06:37:35.809Z,98401.61
2023-04-22T06:40:03.502Z,98405.09
2023-04-22T06:42:31.087Z,98402.30
2023-04-22T06:44:58.635Z,98406.05
2023-04-22T06:47:26.367Z,98402.77
2023-04-22T06:49:53.877Z,98399.00
2023-04-22T06:52:22.734Z,98400.53
2023-04-22T06:54:51.503Z,98395.23
2023-04-22T06:57:19.147Z,98393.17
2023-04-22T06:59:47.171Z,98394.77
2023-04-22T07:02:15.006Z,98395.13
2023-04-22T07:04:42.719Z,98394.69
2023-04-22T07:07:10.519Z,98393.81
2023-04-22T07:09:38.305Z,98397.48
2023-04-22T07:12:06.222Z,98400.20
2023-04-22T07:14:33.803Z,98395.37
2023-04-22T07:17:01.417Z,98396.79
2023-04-22T07:19:29.063Z,98397.36
2023-04-22T07:21:56.602Z,98396.91
2023-04-22T07:24:24.240Z,98397.94
2023-04-22T07:26:51.856Z,98397.69
2023-04-22T07:29:19.464Z,98396.30
2023-04-22T07:31:47.013Z,98398.66
2023-04-22T07:34:14.737Z,98396.99
2023-04-22T07:36:42.351Z,98394.27
2023-04-22T07:39:10.031Z,98393.34
2023-04-22T07:41:37.576Z,98393.21
2023-04-22T07:44:05.134Z,98394.08
2023-04-22T07:46:32.724Z,98394.39
2023-04-22T07:49:00.282Z,98396.89
2023-04-22T07:51:27.830Z,98395.98
2023-04-22T07:53:55.410Z,98397.02
2023-04-22T07:56:23.110Z,98394.29
2023-04-22T07:58:50.657Z,98395.80
2023-04-22T08:01:19.935Z,98390.30
2023-04-22T08:03:48.125Z,98390.61
2023-04-22T08:06:15.919Z,98390.92
2023-04-22T08:08:43.515Z,98389.59
2023-04-22T08:11:11.249Z,98385.95
2023-04-22T08:13:38.771Z,98384.32
2023-04-22T08:16:06.669Z,98388.45
2023-04-22T08:18:35.103Z,98384.25
2023-04-22T08:21:03.056Z,98382.02
2023-04-22T08:23:30.650Z,98381.92
2023-04-22T08:25:58.622Z,98382.60
2023-04-22T08:28:26.166Z,98385.20
2023-04-22T08:30:53.851Z,98387.20
2023-04-22T08:33:21.687Z,98386.06
2023-04-22T08:35:50.452Z,98379.11
2023-04-22T08:38:18.604Z,98378.40
2023-04-22T08:40:46.683Z,98384.36
2023-04-22T08:43:14.763Z,98380.65
2023-04-22T08:45:42.473Z,98375.11
2023-04-22T08:48:11.525Z,98372.29
2023-04-22T08:50:39.100Z,98370.63
2023-04-22T08:53:06.912Z,98366.27
2023-04-22T08:55:35.939Z,98370.24
2023-04-22T08:58:04.740Z,98368.47
2023-04-22T09:00:33.369Z,98370.09
2023-04-22T09:03:02.455Z,98367.13
2023-04-22T09:05:34.045Z,98367.89
2023-04-22T09:08:02.620Z,98361.35
2023-04-22T09:10:33.542Z,98365.67
2023-04-22T09:13:03.521Z,98364.26
2023-04-22T09:15:31.385Z,98364.41
2023-04-22T09:17:59.013Z,98358.84
2023-04-22T09:20:28.463Z,98355.05
2023-04-22T09:22:57.788Z,98364.45
2023-04-22T09:25:27.280Z,98364.99
2023-04-22T09:27:55.597Z,98358.83
2023-04-22T09:30:31.756Z,98357.56
2023-04-22T09:33:01.449Z,98356.04
2023-04-22T09:35:31.659Z,98347.77
2023-04-22T09:38:01.730Z,98345.77
2023-04-22T09:40:30.493Z,98341.77
2023-04-22T09:43:03.276Z,98343.52
2023-04-22T09:45:33.584Z,98340.14
2023-04-22T09:48:13.058Z,98339.61
2023-04-22T09:50:48.529Z,98335.63
2023-04-22T09:53:18.631Z,98332.02
2023-04-22T09:55:49.055Z,98330.28
2023-04-22T09:58:18.675Z,98330.63
2023-04-22T10:00:53.328Z,98328.92
2023-04-22T10:03:21.152Z,98328.52
2023-04-22T10:05:49.128Z,98325.80
2023-04-22T10:08:17.049Z,98328.13
2023-04-22T10:10:45.188Z,98324.02
2023-04-22T10:13:12.867Z,98318.76
2023-04-22T10:15:42.926Z,98320.30
2023-04-22T10:18:13.638Z,98321.77
2023-04-22T10:20:43.105Z,98320.34
2023-04-22T10:23:18.092Z,98314.95
2023-04-22T10:25:50.496Z,98312.42
2023-04-22T10:28:18.300Z,98317.67
2023-04-22T10:30:46.313Z,98311.61
2023-04-22T10:33:23.025Z,98314.72
2023-04-22T10:36:06.796Z,98313.13
2023-04-22T10:38:54.763Z,98299.84
2023-04-22T10:41:23.648Z,98308.59
2023-04-22T10:43:58.341Z,98302.51
2023-04-22T10:46:32.072Z,98299.89
2023-04-22T10:49:10.514Z,98297.48
2023-04-22T10:51:42.741Z,98299.92
2023-04-22T10:54:39.732Z,98295.98
2023-04-22T10:57:12.753Z,98294.42
2023-04-22T10:59:49.629Z,98298.55
2023-04-22T11:02:19.501Z,98291.33
2023-04-22T11:04:47.661Z,98291.77
2023-04-22T11:07:16.093Z,98288.03
2023-04-22T11:09:46.004Z,98286.42
2023-04-22T11:12:35.573Z,98281.27
2023-04-22T11:15:07.926Z,98286.27
2023-04-22T11:17:36.949Z,98288.08
2023-04-22T11:20:06.495Z,98282.71
2023-04-22T11:22:38.775Z,98274.13
2023-04-22T11:25:06.656Z,98272.91
2023-04-22T11:27:34.264Z,98268.98
2023-04-22T11:30:04.525Z,98265.98
2023-04-22T11:32:32.432Z,98267.30
2023-04-22T11:35:07.411Z,98266.63
2023-04-22T11:37:43.261Z,98265.77
2023-04-22T11:40:28.866Z,98264.63
2023-04-22T11:42:59.769Z,98269.11
2023-04-22T11:45:29.386Z,98267.04
2023-04-22T11:47:57.267Z,98267.23
2023-04-22T11:50:27.687Z,98259.73
2023-04-22T11:53:19.950Z,98260.07
2023-04-22T11:55:50.750Z,98256.31
2023-04-22T11:58:23.704Z,98251.83
2023-04-22T12:00:53.452Z,98255.79
2023-04-22T12:03:24.563Z,98254.40
2023-04-22T12:05:58.014Z,98258.30
2023-04-22T12:08:48.665Z,98256.02
2023-04-22T12:11:16.282Z,98253.08
2023-04-22T12:13:45.230Z,98255.40
2023-04-22T12:16:19.142Z,98247.98
2023-04-22T12:18:52.810Z,98243.30
2023-04-22T12:21:23.491Z,98235.93
2023-04-22T12:23:54.246Z,98237.76
2023-04-22T12:26:26.175Z,98235.52
2023-04-22T12:28:56.645Z,98233.36
2023-04-22T12:31:25.422Z,98229.86
2023-04-22T12:33:54.145Z,98229.51
2023-04-22T12:36:22.186Z,98233.10
2023-04-22T12:38:50.256Z,98230.16
2023-04-22T12:41:18.103Z,98233.17
2023-04-22T12:43:45.783Z,98225.80
2023-04-22T12:46:13.436Z,98227.48
2023-04-22T12:48:41.137Z,98224.15
2023-04-22T12:51:08.849Z,98222.34
2023-04-22T12:53:36.555Z,98219.36
2023-04-22T12:56:04.267Z,98215.32
2023-04-22T12:58:31.895Z,98215.70
2023-04-22T13:00:59.532Z,98213.88
2023-04-22T13:03:27.503Z,98207.63
2023-04-22T13:05:55.188Z,98208.34
2023-04-22T13:08:22.804Z,98208.92
2023-04-22T13:10:50.371Z,98206.71
2023-04-22T13:13:19.376Z,98203.00
2023-04-22T13:15:48.351Z,98195.99
2023-04-22T13:18:16.195Z,98198.58
2023-04-22T13:20:44.167Z,98197.42
2023-04-22T13:23:11.814Z,98193.70
2023-04-22T13:25:39.595Z,98191.84
2023-04-22T13:28:07.380Z,98188.94
2023-04-22T13:30:35.862Z,98187.12
2023-04-22T13:33:03.507Z,98190.27
2023-04-22T13:35:31.456Z,98187.90
2023-04-22T13:37:59.159Z,98186.70
2023-04-22T13:40:26.900Z,98182.75
2023-04-22T13:42:55.249Z,98180.61
2023-04-22T13:45:23.122Z,98181.14
2023-04-22T13:47:50.742Z,98182.21
2023-04-22T13:50:18.361Z,98178.66
2023-04-22T13:52:46.002Z,98178.80
2023-04-22T13:55:13.573Z,98174.21
2023-04-22T13:57:41.176Z,98170.59
2023-04-22T14:00:09.218Z,98171.96
2023-04-22T14:02:36.805Z,98171.44
2023-04-22T14:05:05.287Z,98169.29
2023-04-22T14:07:32.875Z,98162.27
2023-04-22T14:10:00.429Z,98165.90
2023-04-22T14:12:28.080Z,98164.71
2023-04-22T14:14:55.658Z,98160.95
2023-04-22T14:17:23.279Z,98160.20
2023-04-22T14:19:50.892Z,98160.48
2023-04-22T14:22:18.458Z,98160.98
2023-04-22T14:24:46.172Z,98155.77
2023-04-22T14:27:13.729Z,98155.34
2023-04-22T14:29:41.677Z,98150.00
2023-04-22T14:32:09.887Z,98143.86
2023-04-22T14:34:37.625Z,98146.95
2023-04-22T14:37:05.280Z,98146.23
2023-04-22T14:39:32.828Z,98143.41
2023-04-22T14:42:00.461Z,98139.25
2023-04-22T14:44:28.094Z,98136.05
2023-04-22T14:46:55.712Z,98137.63
2023-04-22T14:49:23.363Z,98137.15
2023-04-22T14:51:51.084Z,98129.80
2023-04-22T14:54:18.651Z,98127.85
2023-04-22T14:56:46.325Z,98129.22
2023-04-22T14:59:13.912Z,98132.11
2023-04-22T15:01:42.261Z,98131.27
2023-04-22T15:04:10.153Z,98131.02
2023-04-22T15:06:37.889Z,98129.05
2023-04-22T15:09:05.553Z,98127.02
2023-04-22T15:11:33.210Z,98128.45
2023-04-22T15:14:00.809Z,98128.83
2023-04-22T15:16:28.657Z,98123.52
2023-04-22T15:18:57.012Z,98127.02
2023-04-22T15:21:24.676Z,98123.25
2023-04-22T15:23:52.303Z,98122.79
2023-04-22T15:26:20.088Z,98125.19
2023-04-22T15:28:47.678Z,98120.69
2023-04-22T15:31:15.238Z,98122.52
2023-04-22T15:33:43.088Z,98118.79
2023-04-22T15:36:10.827Z,98116.77
2023-04-22T15:38:38.461Z,98118.23
2023-04-22T15:41:06.079Z,98111.79
2023-04-22T15:43:33.678Z,98111.80
2023-04-22T15:46:01.306Z,98109.75
2023-04-22T15:48:28.920Z,98107.32
2023-04-22T15:50:56.497Z,98104.08
2023-04-22T15:53:24.061Z,98105.14
2023-04-22T15:55:51.617Z,98102.61
2023-04-22T15:58:19.202Z,98099.73
2023-04-22T16:00:46.802Z,98099.61
2023-04-22T16:03:14.704Z,98100.56
2023-04-22T16:05:42.475Z,98101.80
2023-04-22T16:08:10.271Z,98100.77
2023-04-22T16:10:37.831Z,98096.57
2023-04-22T16:13:05.419Z,98100.55
2023-04-22T16:15:33.144Z,98102.48
2023-04-22T16:18:00.887Z,98102.29
2023-04-22T16:20:29.472Z,98095.52
2023-04-22T16:22:57.450Z,98095.77
2023-04-22T16:25:25.255Z,98095.12
2023-04-22T16:27:52.810Z,98095.90
2023-04-22T16:30:20.395Z,98094.58
2023-04-22T16:32:48.788Z,98094.70
2023-04-22T16:35:16.436Z,98098.41
2023-04-22T16:37:44.004Z,98094.46
2023-04-22T16:40:11.987Z,98092.34
2023-04-22T16:42:39.526Z,98092.70
2023-04-22T16:45:07.458Z,98094.80
2023-04-22T16:47:35.064Z,98096.73
2023-04-22T16:50:03.147Z,98094.09
2023-04-22T16:52:30.695Z,98094.61
2023-04-22T16:54:58.268Z,98090.11
2023-04-22T16:57:25.859Z,98086.64
2023-04-22T16:59:53.369Z,98086.64
2023-04-22T17:02:21.039Z,98087.18
2023-04-22T17:04:48.738Z,98082.42
2023-04-22T17:07:16.521Z,98082.87
2023-04-22T17:09:44.217Z,98079.69
2023-04-22T17:12:12.057Z,98086.63
2023-04-22T17:14:39.586Z,98086.31
2023-04-22T17:17:07.139Z,98086.24
2023-04-22T17:19:34.728Z,98089.67
2023-04-22T17:22:02.306Z,98084.41
2023-04-22T17:24:29.983Z,98089.70
2023-04-22T17:26:57.570Z,98092.77
2023-04-22T17:29:25.238Z,98092.77
2023-04-22T17:31:52.894Z,98089.29
2023-04-22T17:34:20.522Z,98087.54
2023-04-22T17:36:48.131Z,98086.36
2023-04-22T17:39:15.867Z,98091.25
2023-04-22T17:41:43.938Z,98092.94
2023-04-22T17:44:11.655Z,98093.58
2023-04-22T17:46:39.267Z,98094.15
2023-04-22T17:49:07.223Z,98096.89
2023-04-22T17:51:34.903Z,98102.00
2023-04-22T17:54:02.470Z,98106.73
2023-04-22T17:56:30.007Z,98107.32
2023-04-22T17:58:57.566Z,98112.65
2023-04-22T18:01:25.201Z,98110.23
2023-04-22T18:03:52.829Z,98110.01
2023-04-22T18:06:20.499Z,98112.97
2023-04-22T18:08:48.010Z,98118.00
2023-04-22T18:11:15.645Z,98118.84
2023-04-22T18:13:43.203Z,98120.10
2023-04-22T18:16:10.910Z,98124.67
2023-04-22T18:18:38.527Z,98125.94
2023-04-22T18:21:06.179Z,98124.25
2023-04-22T18:23:33.760Z,98122.88
2023-04-22T18:26:01.315Z,98124.67
2023-04-22T18:28:28.869Z,98128.02
2023-04-22T18:30:56.455Z,98127.13
2023-04-22T18:33:24.040Z,98132.03
2023-04-22T18:35:51.791Z,98131.24
2023-04-22T18:38:19.345Z,98133.30
2023-04-22T18:40:46.874Z,98137.84
2023-04-22T18:43:14.466Z,98139.67
2023-04-22T18:45:42.041Z,98143.28
2023-04-22T18:48:09.709Z,98144.16
2023-04-22T18:50:37.543Z,98140.38
2023-04-22T18:53:05.077Z,98138.50
2023-04-22T18:55:32.746Z,98140.94
2023-04-22T18:58:00.282Z,98141.97
2023-04-22T19:00:27.920Z,98142.71
2023-04-22T19:02:55.566Z,98148.96
2023-04-22T19:05:23.190Z,98151.09
2023-04-22T19:07:50.999Z,98149.45
2023-04-22T19:10:18.726Z,98149.81
2023-04-22T19:12:46.427Z,98151.86
2023-04-22T19:15:13.990Z,98148.01
2023-04-22T19:17:41.569Z,98148.38
2023-04-22T19:20:09.562Z,98145.25
2023-04-22T19:22:37.307Z,98147.20
2023-04-22T19:25:05.341Z,98144.96
2023-04-22T19:27:34.055Z,98145.42
2023-04-22T19:30:01.736Z,98147.23
2023-04-22T19:32:29.334Z,98147.20
2023-04-22T19:34:56.984Z,98145.81
2023-04-22T19:37:24.517Z,98143.23
2023-04-22T19:39:52.099Z,98140.77
2023-04-22T19:42:19.667Z,98137.42
2023-04-22T19:44:47.481Z,98140.79
2023-04-22T19:47:15.637Z,98141.52
2023-04-22T19:49:43.718Z,98141.26
2023-04-22T19:52:12.215Z,98139.11
2023-04-22T19:54:40.101Z,98135.66
2023-04-22T19:57:08.216Z,98135.98
2023-04-22T19:59:35.976Z,98132.69
2023-04-22T20:02:03.675Z,98132.23
2023-04-22T20:04:31.549Z,98132.16
2023-04-22T20:07:02.105Z,98131.12
2023-04-22T20:09:32.092Z,98130.07
2023-04-22T20:11:59.735Z,98131.22
2023-04-22T20:14:27.956Z,98125.13
2023-04-22T20:16:55.760Z,98127.61
2023-04-22T20:19:23.437Z,98128.95
2023-04-22T20:21:51.571Z,98130.65
2023-04-22T20:24:20.170Z,98131.30
2023-04-22T20:26:48.027Z,98129.63
2023-04-22T20:29:18.560Z,98127.20
2023-04-22T20:31:46.291Z,98128.52
2023-04-22T20:34:13.952Z,98129.54
2023-04-22T20:36:42.553Z,98132.22
2023-04-22T20:39:12.680Z,98131.78
2023-04-22T20:41:40.665Z,98128.57
2023-04-22T20:44:08.244Z,98126.54
2023-04-22T20:46:35.819Z,98126.52
2023-04-22T20:49:03.397Z,98121.90
2023-04-22T20:51:31.012Z,98121.92
2023-04-22T20:53:58.616Z,98121.21
2023-04-22T20:56:26.153Z,98122.80
2023-04-22T20:58:53.715Z,98121.48
2023-04-22T21:01:21.379Z,98122.64
2023-04-22T21:03:51.720Z,98119.60
2023-04-22T21:06:20.073Z,98123.77
2023-04-22T21:08:49.165Z,98121.96
2023-04-22T21:11:17.287Z,98121.59
2023-04-22T21:13:45.043Z,98121.65
2023-04-22T21:16:13.769Z,98118.98
2023-04-22T21:18:44.553Z,98120.23
2023-04-22T21:21:15.909Z,98120.01
2023-04-22T21:23:43.774Z,98117.90
2023-04-22T21:26:12.363Z,98119.73
2023-04-22T21:28:40.182Z,98118.16
2023-04-22T21:31:08.026Z,98120.20
2023-04-22T21:33:35.606Z,98125.26
2023-04-22T21:36:03.408Z,98127.19
2023-04-22T21:38:30.964Z,98128.30
2023-04-22T21:40:58.526Z,98132.47
2023-04-22T21:43:26.096Z,98133.61
2023-04-22T21:45:53.659Z,98135.58
2023-04-22T21:48:21.280Z,98132.92
2023-04-22T21:50:48.904Z,98134.35
2023-04-22T21:53:16.527Z,98134.11
2023-04-22T21:55:44.973Z,98134.33
2023-04-22T21:58:12.531Z,98133.11
2023-04-22T22:00:40.204Z,98133.40
2023-04-22T22:03:07.851Z,98128.55
2023-04-22T22:05:36.192Z,98129.17
2023-04-22T22:08:03.828Z,98130.28
2023-04-22T22:10:31.519Z,98128.42
2023-04-22T22:12:59.101Z,98127.60
2023-04-22T22:15:26.707Z,98124.84
2023-04-22T22:17:54.308Z,98122.30
2023-04-22T22:20:22.026Z,98121.62
2023-04-22T22:22:49.613Z,98123.10
2023-04-22T22:25:17.346Z,98124.59
2023-04-22T22:27:45.227Z,98129.15
2023-04-22T22:30:13.586Z,98126.70
2023-04-22T22:32:41.263Z,98124.42
2023-04-22T22:35:09.306Z,98125.38
2023-04-22T22:37:37.024Z,98126.35
2023-04-22T22:40:05.774Z,98126.11
2023-04-22T22:42:33.448Z,98127.08
2023-04-22T22:45:01.110Z,98129.52
2023-04-22T22:47:28.952Z,98126.39
2023-04-22T22:49:56.658Z,98126.23
2023-04-22T22:52:24.414Z,98124.39
2023-04-22T22:54:52.114Z,98130.31
2023-04-22T22:57:19.716Z,98126.06
2023-04-22T22:59:47.278Z,98123.30
2023-04-22T23:02:15.057Z,98126.98
2023-04-22T23:04:43.053Z,98130.05
2023-04-22T23:07:11.147Z,98129.09
2023-04-22T23:09:38.708Z,98130.55
2023-04-22T23:12:06.359Z,98127.57
2023-04-22T23:14:34.005Z,98129.52
2023-04-22T23:17:01.823Z,98129.23
2023-04-22T23:19:30.830Z,98127.77
2023-04-22T23:21:58.947Z,98129.02
2023-04-22T23:24:26.968Z,98131.31
2023-04-22T23:26:54.914Z,98131.37
2023-04-22T23:29:22.774Z,98129.92
2023-04-22T23:31:50.778Z,98128.14
2023-04-22T23:34:22.352Z,98124.98
2023-04-22T23:36:50.090Z,98126.04
2023-04-22T23:39:17.690Z,98123.77
2023-04-22T23:41:45.231Z,98123.04
2023-04-22T23:44:12.795Z,98122.82
2023-04-22T23:46:40.611Z,98128.19
2023-04-22T23:49:08.290Z,98125.08
2023-04-22T23:51:35.881Z,98121.42
2023-04-22T23:54:03.512Z,98120.16
2023-04-22T23:56:31.389Z,98119.55
2023-04-22T23:58:59.269Z,98119.10
